Davenport, FL

12:36 PM EDT on April 26, 2015 (GMT -0400)
Polk County | | Change Station
CLOSE
Current Station
Personal Weather Station
Location: Davenport, FL
Elevation: 116 ft
Nearby Weather Stations

Elev 116 ft 28.18 °N, 81.62 °W | Updated 1 minute ago

Mostly Cloudy
Mostly Cloudy
88.4 °F
Feels Like 100 °F
N
2.0
Wind Variable Wind from East
Gusts 2.0 mph

Today
High -- | Low -- °F
--% Chance of Precip.
Yesterday
High -- | Low -- °F
Precip. -- in
6:50 AM 7:58 PM
First Quarter, 57% visible
Pressure 29.83 in
Visibility 10.0 miles
Clouds Few 3300 ft
Heat Index 100 °F
Dew Point 76 °F
Humidity 68%
Rainfall 0.00 in
Snow Depth Not available.
UV 12 out of 12
Pollen 9.50 out of 12
Air Quality Not available.
Flu Activity Local Activity
METAR KGIF 261553Z AUTO 26016G22KT 10SM FEW033 31/22 A2984 RMK AO2 SLP101 T03060222

More Conditions Fewer Conditions

Pressure 29.83 in
Visibility 10.0 miles
Clouds Few 3300 ft
Heat Index 100 °F
Dew Point 76 °F
Humidity 68%
Rainfall 0.00 in
Snow Depth Not available.
UV 12 out of 12
Pollen 9.50 out of 12
Air Quality Not available.
Flu Activity Local Activity
METAR KGIF 261553Z AUTO 26016G22KT 10SM FEW033 31/22 A2984 RMK AO2 SLP101 T03060222

More Conditions Fewer Conditions

The full scope of the disaster following a powerful 7.8-magnitude earthquake in Nepal may not come into view for days, but global charities are already sending emergency aid. Click to see how you can help.

10-Day Weather Forecast

Almanac

Astronomy

Apr. 26, 2015 Rise Set
Actual Time
Civil Twilight
Nautical Twilight
Astronomical Twilight
Moon
Length of Visible Light
Length of Day
Tomorrow will be .
, % of the Moon is Illuminated

Today's Extremes

State Highs State Lows

Community

WunderPhotos

Upload Photos

1,817,049 photos uploaded!

WunderBlogs® & News

Nearby

Air Quality

  Air Quality AQ Index Pollutant
Not available.

Snow Depth

Station Depth Elevation

Earthquake Activity

City Distance Mag. Time & Date
Minimum magnitude displayed is 2.5.

Coastal Water Temperatures

Place Temperature

Stations

Nearby Weather Stations

Station Location Temp. Windchill Dew Point Humidity Wind Precip. Elev Updated Type